Time;durP1;ratioP1;P1;durP2;ratioP2;P2;SDS_P1;SDS_P2;PMS_P1;PMS_P2;Temp;Humidity;BMP_temperature;BMP_pressure;BME280_temperature;BME280_humidity;BME280_pressure;Samples;Min_cycle;Max_cycle;Signal;HPM_P1;HPM_P2
2024/01/07 00:01:55;;;;;;;14.57;10.68;;;4.10;94.40;;;;;;5054052;28;20059;-79
2024/01/07 00:04:21;;;;;;;14.93;9.68;;;4.10;94.60;;;;;;5035432;28;20115;-81
2024/01/07 00:06:47;;;;;;;14.93;9.77;;;4.00;94.60;;;;;;5052367;28;20064;-80
2024/01/07 00:09:13;;;;;;;16.80;10.82;;;4.00;94.70;;;;;;5049461;28;20052;-79
2024/01/07 00:11:39;;;;;;;18.08;10.10;;;3.90;94.70;;;;;;5052397;28;20090;-80
2024/01/07 00:14:05;;;;;;;17.83;10.20;;;3.90;94.80;;;;;;5053605;28;20020;-78
2024/01/07 00:16:30;;;;;;;15.27;10.73;;;3.90;94.80;;;;;;5035434;28;20055;-79
2024/01/07 00:18:56;;;;;;;15.70;10.23;;;3.90;94.80;;;;;;5041395;28;20499;-80
2024/01/07 00:21:21;;;;;;;16.67;10.90;;;3.90;94.80;;;;;;5056107;28;20034;-78
2024/01/07 00:23:47;;;;;;;16.33;9.98;;;3.90;94.80;;;;;;5046683;28;20043;-78
2024/01/07 00:26:13;;;;;;;16.70;10.50;;;3.90;94.80;;;;;;5030922;28;20062;-78
2024/01/07 00:28:39;;;;;;;13.38;10.13;;;3.80;94.80;;;;;;5055994;28;20473;-82
2024/01/07 00:31:07;;;;;;;14.50;11.00;;;3.70;94.70;;;;;;5046982;28;20128;-79
2024/01/07 00:33:34;;;;;;;16.10;10.18;;;3.70;94.90;;;;;;5037275;28;20082;-80
2024/01/07 00:35:59;;;;;;;15.90;10.70;;;3.60;95.00;;;;;;5063698;28;20028;-80
2024/01/07 00:38:25;;;;;;;16.50;10.77;;;3.60;95.10;;;;;;5044153;28;20132;-78
2024/01/07 00:40:51;;;;;;;17.20;11.48;;;3.60;95.20;;;;;;5051487;28;20053;-77
2024/01/07 00:43:18;;;;;;;15.38;10.60;;;3.60;95.20;;;;;;5055622;28;20691;-81
2024/01/07 00:45:43;;;;;;;17.00;10.80;;;3.60;95.30;;;;;;5062732;28;20280;-80
2024/01/07 00:48:09;;;;;;;15.02;10.80;;;3.60;95.30;;;;;;5044296;28;20388;-81
2024/01/07 00:50:35;;;;;;;17.80;11.45;;;3.50;95.40;;;;;;5039011;28;20021;-79
2024/01/07 00:53:00;;;;;;;17.15;11.60;;;3.40;95.30;;;;;;5050722;28;20449;-81
2024/01/07 00:55:26;;;;;;;16.33;11.48;;;3.40;95.30;;;;;;5046224;28;20032;-80
2024/01/07 00:57:52;;;;;;;18.02;11.07;;;3.40;95.40;;;;;;5036113;28;20113;-84
2024/01/07 01:00:18;;;;;;;17.63;11.10;;;3.40;95.40;;;;;;5078984;28;20040;-83
2024/01/07 01:02:44;;;;;;;15.10;11.20;;;3.30;95.40;;;;;;5079638;28;20029;-83
2024/01/07 01:05:09;;;;;;;14.90;10.93;;;3.30;95.40;;;;;;5064603;28;20059;-83
2024/01/07 01:07:35;;;;;;;16.02;11.52;;;3.30;95.40;;;;;;5056786;28;20476;-80
2024/01/07 01:10:01;;;;;;;16.52;11.55;;;3.20;95.40;;;;;;5063873;28;20017;-82
2024/01/07 01:12:26;;;;;;;21.90;12.15;;;3.20;95.60;;;;;;5051263;28;20112;-81
2024/01/07 01:14:52;;;;;;;18.73;11.20;;;3.10;95.60;;;;;;5069411;28;20016;-82
2024/01/07 01:17:18;;;;;;;16.30;11.63;;;3.10;95.70;;;;;;5049309;28;20055;-78
2024/01/07 01:19:43;;;;;;;15.93;11.25;;;3.10;95.80;;;;;;5063532;28;20132;-78
2024/01/07 01:22:09;;;;;;;18.90;11.63;;;3.10;95.80;;;;;;5071765;28;20028;-83
2024/01/07 01:24:34;;;;;;;22.58;12.02;;;3.10;95.90;;;;;;5085303;28;20078;-82
2024/01/07 01:27:00;;;;;;;16.58;11.60;;;3.10;96.00;;;;;;5068298;28;20116;-82
2024/01/07 01:29:26;;;;;;;20.20;12.30;;;3.00;96.00;;;;;;5064552;28;20029;-82
2024/01/07 01:31:51;;;;;;;17.90;12.50;;;2.90;95.90;;;;;;5068656;28;20040;-81
2024/01/07 01:34:17;;;;;;;17.13;12.13;;;2.90;96.10;;;;;;5060007;28;20045;-80
2024/01/07 01:36:42;;;;;;;16.48;11.77;;;2.90;96.20;;;;;;5061814;28;20100;-79
2024/01/07 01:39:08;;;;;;;16.60;11.98;;;2.80;96.10;;;;;;5084251;28;20029;-81
2024/01/07 01:41:34;;;;;;;20.20;13.25;;;2.80;96.20;;;;;;5087018;28;20020;-82
2024/01/07 01:44:00;;;;;;;21.83;11.93;;;2.80;96.30;;;;;;5064491;28;20029;-80
2024/01/07 01:46:26;;;;;;;18.85;12.23;;;2.80;96.30;;;;;;5060762;28;20040;-81
2024/01/07 01:48:52;;;;;;;20.17;11.77;;;2.80;96.40;;;;;;5041555;28;20452;-77
2024/01/07 01:51:18;;;;;;;18.67;11.80;;;2.80;96.30;;;;;;5063888;28;20047;-80
2024/01/07 01:53:45;;;;;;;21.88;13.40;;;2.80;96.30;;;;;;5061199;28;20035;-77
2024/01/07 01:56:12;;;;;;;20.23;12.85;;;2.80;96.30;;;;;;5059187;28;20025;-78
2024/01/07 01:58:37;;;;;;;19.80;12.98;;;2.80;96.20;;;;;;5055637;28;20064;-82
2024/01/07 02:01:03;;;;;;;17.52;10.77;;;2.80;96.20;;;;;;5039063;28;20052;-79
2024/01/07 02:03:29;;;;;;;16.95;10.65;;;2.80;96.00;;;;;;5041250;28;20050;-78
2024/01/07 02:05:56;;;;;;;16.25;10.50;;;2.80;95.80;;;;;;5055735;28;20521;-82
2024/01/07 02:08:23;;;;;;;16.85;10.13;;;2.80;95.30;;;;;;5059041;28;20229;-79
2024/01/07 02:10:48;;;;;;;15.88;9.40;;;2.80;95.00;;;;;;5042515;28;20389;-79
2024/01/07 02:13:14;;;;;;;13.90;9.23;;;2.80;94.60;;;;;;5055583;28;20028;-81
2024/01/07 02:15:40;;;;;;;16.15;9.23;;;2.90;94.40;;;;;;5039655;28;20036;-81
2024/01/07 02:18:05;;;;;;;14.80;9.10;;;2.90;94.20;;;;;;5059642;28;20029;-77
2024/01/07 02:20:31;;;;;;;16.75;9.80;;;2.90;93.70;;;;;;5055438;28;20391;-81
2024/01/07 02:23:00;;;;;;;16.40;8.95;;;3.00;93.20;;;;;;5039062;28;20033;-79
2024/01/07 02:25:25;;;;;;;18.25;9.35;;;3.00;92.60;;;;;;5057161;28;20017;-81
2024/01/07 02:27:51;;;;;;;14.80;9.05;;;3.10;92.10;;;;;;5054013;28;20092;-82
2024/01/07 02:30:17;;;;;;;16.17;9.38;;;3.10;91.50;;;;;;5054282;28;20369;-78
2024/01/07 02:32:43;;;;;;;14.50;8.75;;;3.10;90.90;;;;;;5054066;28;20033;-81
2024/01/07 02:35:08;;;;;;;15.40;8.68;;;3.20;90.70;;;;;;5052281;28;20611;-79
2024/01/07 02:37:34;;;;;;;15.63;9.23;;;3.30;90.30;;;;;;5060556;28;20036;-82
2024/01/07 02:40:00;;;;;;;13.93;9.10;;;3.20;89.90;;;;;;5036756;28;20055;-77
2024/01/07 02:42:26;;;;;;;13.15;8.80;;;3.20;89.50;;;;;;5059455;28;20021;-77
2024/01/07 02:44:51;;;;;;;13.57;9.27;;;3.20;89.00;;;;;;5053015;28;20523;-79
2024/01/07 02:47:17;;;;;;;17.25;9.77;;;3.30;89.00;;;;;;5039528;28;20031;-77
2024/01/07 02:49:42;;;;;;;15.45;9.95;;;3.20;88.50;;;;;;5059075;28;20016;-78
2024/01/07 02:52:08;;;;;;;15.43;10.10;;;3.20;88.60;;;;;;5058702;28;20497;-79
2024/01/07 02:54:33;;;;;;;14.13;9.60;;;3.30;88.70;;;;;;5031888;28;20044;-82
2024/01/07 02:56:59;;;;;;;14.27;9.50;;;3.20;88.40;;;;;;5038495;28;20024;-79
2024/01/07 02:59:25;;;;;;;14.75;10.10;;;3.20;88.50;;;;;;5054823;28;20111;-82
2024/01/07 03:01:50;;;;;;;15.90;9.80;;;3.30;88.50;;;;;;5056909;28;20017;-78
2024/01/07 03:04:16;;;;;;;16.02;10.40;;;3.20;88.40;;;;;;5038435;28;20056;-82
2024/01/07 03:06:42;;;;;;;15.27;10.45;;;3.20;88.70;;;;;;5038849;28;20024;-79
2024/01/07 03:09:10;;;;;;;17.92;11.07;;;3.20;88.60;;;;;;5050185;28;20351;-79
2024/01/07 03:11:40;;;;;;;15.57;10.43;;;3.20;88.60;;;;;;5055706;28;20022;-82
2024/01/07 03:14:06;;;;;;;16.58;10.52;;;3.20;88.80;;;;;;5059532;28;20336;-81
2024/01/07 03:16:32;;;;;;;16.83;12.30;;;3.20;88.80;;;;;;5053043;28;20481;-78
2024/01/07 03:18:58;;;;;;;16.48;11.55;;;3.10;88.70;;;;;;5058836;28;20037;-79
2024/01/07 03:21:24;;;;;;;18.70;11.20;;;3.10;88.90;;;;;;5059710;28;20066;-78
2024/01/07 03:23:51;;;;;;;17.63;11.38;;;3.10;89.00;;;;;;5052891;28;20431;-80
2024/01/07 03:26:18;;;;;;;18.35;12.30;;;3.10;89.30;;;;;;5047367;28;20067;-83
2024/01/07 03:28:44;;;;;;;16.20;11.70;;;3.10;89.30;;;;;;5081277;28;20029;-83
2024/01/07 03:31:12;;;;;;;17.55;11.55;;;3.10;89.40;;;;;;5082977;28;20048;-83
2024/01/07 03:33:39;;;;;;;16.20;11.65;;;3.10;89.60;;;;;;5075181;28;20047;-78
2024/01/07 03:36:09;;;;;;;18.45;12.25;;;3.20;89.60;;;;;;5054002;28;20027;-80
2024/01/07 03:38:36;;;;;;;17.13;12.10;;;3.10;89.70;;;;;;5039587;28;20048;-78
2024/01/07 03:41:02;;;;;;;18.23;12.68;;;3.10;89.60;;;;;;5036568;28;20132;-81
2024/01/07 03:43:27;;;;;;;18.52;13.30;;;3.10;89.80;;;;;;5039124;28;20129;-80
2024/01/07 03:45:53;;;;;;;18.42;12.95;;;3.10;89.80;;;;;;5055119;28;20024;-80
2024/01/07 03:48:19;;;;;;;20.38;14.48;;;3.10;89.90;;;;;;5054436;28;20481;-79
2024/01/07 03:50:45;;;;;;;18.80;13.85;;;3.00;89.50;;;;;;5057925;28;20190;-77
2024/01/07 03:53:11;;;;;;;17.88;14.05;;;3.00;89.80;;;;;;5057464;28;20127;-79
2024/01/07 03:55:36;;;;;;;19.98;15.18;;;3.00;89.60;;;;;;5058415;28;20020;-78
2024/01/07 03:58:03;;;;;;;20.98;14.27;;;2.90;89.70;;;;;;5057783;28;20051;-78
2024/01/07 04:00:28;;;;;;;20.58;15.75;;;3.00;89.70;;;;;;5053977;28;20035;-81
2024/01/07 04:02:54;;;;;;;20.27;15.38;;;2.90;89.90;;;;;;5039375;28;20361;-76
2024/01/07 04:05:20;;;;;;;19.85;15.95;;;2.90;89.90;;;;;;5053794;28;20100;-80
2024/01/07 04:07:45;;;;;;;21.17;16.13;;;2.90;90.20;;;;;;5056642;28;20032;-77
2024/01/07 04:10:11;;;;;;;21.85;16.67;;;2.90;90.20;;;;;;5039160;28;20097;-78
2024/01/07 04:12:37;;;;;;;23.58;17.42;;;2.90;90.10;;;;;;5057779;28;20465;-80
2024/01/07 04:15:03;;;;;;;20.60;16.60;;;2.80;90.10;;;;;;5050456;28;20243;-77
2024/01/07 04:17:29;;;;;;;22.48;16.90;;;2.80;90.20;;;;;;5054359;28;20025;-79
2024/01/07 04:19:55;;;;;;;23.10;18.48;;;2.80;90.50;;;;;;5056036;28;20461;-77
2024/01/07 04:22:20;;;;;;;23.40;18.35;;;2.80;90.60;;;;;;5034271;28;20103;-77
2024/01/07 04:24:46;;;;;;;25.38;19.52;;;2.80;90.60;;;;;;5058570;28;20376;-80
2024/01/07 04:27:11;;;;;;;22.92;18.55;;;2.80;90.60;;;;;;5053438;28;20029;-77
2024/01/07 04:29:37;;;;;;;24.65;19.88;;;2.90;90.70;;;;;;5040509;28;20129;-77
2024/01/07 04:32:03;;;;;;;27.98;21.05;;;2.80;90.70;;;;;;5036880;28;20021;-76
2024/01/07 04:34:28;;;;;;;24.75;19.73;;;2.80;90.80;;;;;;5038755;28;20041;-78
2024/01/07 04:36:54;;;;;;;25.02;20.02;;;2.80;90.80;;;;;;5035811;28;20039;-79
2024/01/07 04:39:20;;;;;;;24.17;19.15;;;2.80;90.70;;;;;;5060251;28;20036;-79
2024/01/07 04:41:45;;;;;;;26.27;20.50;;;2.80;91.00;;;;;;5062396;28;20468;-79
2024/01/07 04:44:11;;;;;;;27.17;21.10;;;2.70;91.10;;;;;;5059404;28;20457;-81
2024/01/07 04:46:40;;;;;;;25.17;19.85;;;2.80;91.10;;;;;;5041333;28;20024;-78
2024/01/07 04:49:06;;;;;;;25.05;19.48;;;2.80;91.20;;;;;;5058843;28;20480;-78
2024/01/07 04:51:32;;;;;;;25.65;19.95;;;2.80;91.20;;;;;;5060008;28;20093;-79
2024/01/07 04:53:58;;;;;;;24.90;19.65;;;2.80;91.30;;;;;;5059733;28;20056;-77
2024/01/07 04:56:24;;;;;;;27.08;19.63;;;2.80;91.30;;;;;;5040323;28;20693;-78
2024/01/07 04:58:50;;;;;;;26.45;19.52;;;2.80;91.20;;;;;;5055174;28;20044;-81
2024/01/07 05:01:15;;;;;;;26.95;20.88;;;2.80;91.30;;;;;;5060126;28;20105;-77
2024/01/07 05:03:41;;;;;;;28.20;21.38;;;2.80;91.60;;;;;;5059041;28;20476;-80
2024/01/07 05:06:10;;;;;;;27.33;21.55;;;2.70;91.50;;;;;;5065026;28;20129;-78
2024/01/07 05:08:37;;;;;;;28.65;22.40;;;2.70;91.80;;;;;;5041322;28;20039;-76
2024/01/07 05:11:03;;;;;;;28.52;22.63;;;2.70;91.80;;;;;;5058404;28;20029;-80
2024/01/07 05:13:29;;;;;;;29.27;22.85;;;2.70;91.90;;;;;;5059309;28;20464;-79
2024/01/07 05:15:54;;;;;;;32.75;24.05;;;2.70;92.10;;;;;;5044968;28;20579;-80
2024/01/07 05:18:24;;;;;;;29.75;23.35;;;2.80;92.00;;;;;;5039596;28;20093;-77
2024/01/07 05:20:50;;;;;;;29.83;23.95;;;2.70;92.10;;;;;;5042137;28;20044;-77
2024/01/07 05:23:16;;;;;;;31.27;23.58;;;2.70;92.20;;;;;;5059016;28;21088;-78
2024/01/07 05:25:45;;;;;;;31.80;25.30;;;2.70;92.30;;;;;;5055985;28;20052;-77
2024/01/07 05:28:11;;;;;;;33.20;25.80;;;2.80;92.30;;;;;;5037257;28;20111;-77
2024/01/07 05:30:38;;;;;;;30.55;24.17;;;2.70;92.30;;;;;;5037087;28;20104;-78
2024/01/07 05:33:04;;;;;;;31.67;24.52;;;2.70;92.30;;;;;;5060788;28;20060;-76
2024/01/07 05:35:30;;;;;;;35.20;25.27;;;2.80;92.40;;;;;;5058449;28;20020;-77
2024/01/07 05:37:56;;;;;;;33.97;26.27;;;2.80;92.40;;;;;;5055126;28;20052;-76
2024/01/07 05:40:22;;;;;;;35.00;26.80;;;2.80;92.40;;;;;;5043405;28;20392;-76
2024/01/07 05:42:47;;;;;;;34.03;25.33;;;2.70;92.50;;;;;;5054835;28;20107;-76
2024/01/07 05:45:13;;;;;;;34.40;26.50;;;2.70;92.50;;;;;;5060742;28;20090;-80
2024/01/07 05:47:40;;;;;;;34.20;25.50;;;2.70;92.30;;;;;;5056409;28;20377;-78
2024/01/07 05:50:06;;;;;;;30.35;23.77;;;2.70;92.20;;;;;;5043571;28;20028;-77
2024/01/07 05:52:32;;;;;;;30.05;23.70;;;2.80;92.10;;;;;;5042603;28;20029;-79
2024/01/07 05:54:58;;;;;;;31.63;23.55;;;2.80;92.10;;;;;;5041555;28;20024;-79
2024/01/07 05:57:23;;;;;;;28.13;21.55;;;2.70;91.80;;;;;;5049706;28;20465;-77
2024/01/07 05:59:50;;;;;;;29.35;22.88;;;2.60;91.80;;;;;;5040401;28;20338;-78
2024/01/07 06:02:16;;;;;;;28.30;21.80;;;2.70;91.70;;;;;;5039261;28;20020;-77
2024/01/07 06:04:42;;;;;;;27.63;20.98;;;2.70;91.60;;;;;;5041111;28;20762;-78
2024/01/07 06:07:08;;;;;;;28.05;22.52;;;2.70;91.70;;;;;;5059635;28;20158;-77
2024/01/07 06:09:34;;;;;;;25.40;20.27;;;2.70;91.60;;;;;;5057148;28;20051;-78
2024/01/07 06:12:01;;;;;;;28.98;22.48;;;2.80;91.70;;;;;;5054599;28;20097;-79
2024/01/07 06:14:26;;;;;;;27.98;21.60;;;2.80;91.60;;;;;;5042239;28;20020;-78
2024/01/07 06:16:52;;;;;;;27.73;22.52;;;2.70;91.30;;;;;;5060441;28;20031;-76
2024/01/07 06:19:18;;;;;;;29.33;21.50;;;2.70;91.20;;;;;;5056239;28;20128;-76
2024/01/07 06:21:44;;;;;;;28.05;21.27;;;2.70;91.20;;;;;;5039129;28;20017;-76
2024/01/07 06:24:09;;;;;;;25.65;20.13;;;2.70;91.30;;;;;;5056754;28;20052;-78
2024/01/07 06:26:36;;;;;;;25.15;19.45;;;2.70;91.10;;;;;;5061270;28;20016;-80
2024/01/07 06:29:01;;;;;;;24.30;18.95;;;2.70;91.20;;;;;;5056622;28;20503;-76
2024/01/07 06:31:27;;;;;;;28.13;20.77;;;2.70;90.70;;;;;;5054192;28;20037;-79
2024/01/07 06:33:55;;;;;;;24.60;18.08;;;2.60;90.80;;;;;;5057614;28;20020;-78
2024/01/07 06:36:21;;;;;;;27.52;19.83;;;2.60;90.70;;;;;;5039337;28;20012;-78
2024/01/07 06:38:48;;;;;;;26.70;19.20;;;2.60;90.70;;;;;;5051650;28;20040;-76
2024/01/07 06:41:14;;;;;;;27.92;20.88;;;2.60;90.50;;;;;;5061490;28;20385;-77
2024/01/07 06:43:40;;;;;;;29.48;20.92;;;2.60;90.60;;;;;;5035204;28;20025;-80
2024/01/07 06:46:06;;;;;;;30.85;22.60;;;2.60;90.80;;;;;;5041180;28;20393;-77
2024/01/07 06:48:31;;;;;;;27.92;21.80;;;2.60;90.90;;;;;;5054701;28;20033;-78
2024/01/07 06:50:57;;;;;;;27.45;20.38;;;2.60;90.80;;;;;;5060975;28;20013;-80
2024/01/07 06:53:23;;;;;;;30.13;22.52;;;2.60;90.80;;;;;;5054486;28;20414;-79
2024/01/07 06:55:49;;;;;;;26.95;20.63;;;2.60;90.70;;;;;;5055669;28;20086;-77
2024/01/07 06:58:14;;;;;;;30.63;22.33;;;2.60;90.50;;;;;;5051187;28;20124;-77
2024/01/07 07:00:40;;;;;;;26.83;20.13;;;2.60;90.60;;;;;;5035855;28;20021;-77
2024/01/07 07:03:06;;;;;;;29.80;21.52;;;2.60;90.70;;;;;;5036055;28;20064;-79
2024/01/07 07:05:32;;;;;;;27.17;20.77;;;2.60;90.60;;;;;;5057476;28;20036;-77
2024/01/07 07:07:58;;;;;;;25.83;20.08;;;2.60;90.50;;;;;;5057709;28;20024;-77
2024/01/07 07:10:24;;;;;;;25.33;19.65;;;2.60;90.30;;;;;;5038305;28;20036;-79
2024/01/07 07:12:52;;;;;;;25.10;19.15;;;2.60;90.20;;;;;;5036512;28;20028;-77
2024/01/07 07:15:18;;;;;;;25.73;19.25;;;2.60;90.20;;;;;;5054451;28;20197;-77
2024/01/07 07:17:43;;;;;;;27.27;19.88;;;2.50;90.20;;;;;;5037418;28;20084;-76
2024/01/07 07:20:10;;;;;;;24.88;18.52;;;2.60;90.30;;;;;;5051108;28;20542;-81
2024/01/07 07:22:35;;;;;;;27.50;21.77;;;2.50;90.40;;;;;;5038371;28;20120;-77
2024/01/07 07:25:02;;;;;;;29.38;21.30;;;2.60;90.60;;;;;;5038394;28;20104;-78
2024/01/07 07:27:28;;;;;;;27.60;20.35;;;2.60;90.50;;;;;;5055836;28;20077;-77
2024/01/07 07:29:54;;;;;;;28.67;21.38;;;2.50;90.60;;;;;;5039556;28;20428;-78
2024/01/07 07:32:19;;;;;;;28.55;21.02;;;2.50;90.70;;;;;;5052623;28;20020;-76
2024/01/07 07:34:46;;;;;;;32.25;22.63;;;2.40;90.70;;;;;;5038731;28;20036;-78
2024/01/07 07:37:12;;;;;;;27.65;21.25;;;2.50;91.00;;;;;;5041404;28;20496;-79
2024/01/07 07:39:38;;;;;;;29.98;21.65;;;2.50;91.00;;;;;;5040967;28;20346;-81
2024/01/07 07:42:04;;;;;;;28.40;21.23;;;2.50;91.00;;;;;;5056317;28;20022;-77
2024/01/07 07:44:29;;;;;;;32.30;23.25;;;2.50;91.10;;;;;;5055741;28;20036;-77
2024/01/07 07:46:55;;;;;;;29.90;21.90;;;2.50;91.00;;;;;;5036715;28;20457;-77
2024/01/07 07:49:20;;;;;;;30.58;22.30;;;2.60;91.30;;;;;;5055728;28;20029;-78
2024/01/07 07:51:46;;;;;;;32.80;23.20;;;2.60;91.30;;;;;;5038076;28;20036;-79
2024/01/07 07:54:12;;;;;;;33.10;24.25;;;2.60;91.30;;;;;;5050708;28;20032;-77
2024/01/07 07:56:37;;;;;;;32.90;24.70;;;2.50;91.50;;;;;;5057428;28;20047;-80
2024/01/07 07:59:03;;;;;;;34.08;24.05;;;2.50;91.50;;;;;;5039848;28;20397;-78
2024/01/07 08:01:29;;;;;;;32.10;24.33;;;2.50;91.50;;;;;;5036496;28;20234;-82
2024/01/07 08:03:55;;;;;;;30.17;22.50;;;2.50;91.70;;;;;;5051691;28;20032;-76
2024/01/07 08:06:21;;;;;;;28.70;22.23;;;2.50;91.70;;;;;;5036562;28;20012;-77
2024/01/07 08:08:46;;;;;;;33.75;24.35;;;2.50;91.70;;;;;;5038141;28;20040;-81
2024/01/07 08:11:12;;;;;;;32.78;24.95;;;2.60;91.70;;;;;;5059068;28;20040;-79
2024/01/07 08:13:38;;;;;;;33.35;23.73;;;2.60;91.70;;;;;;5050738;28;20048;-77
2024/01/07 08:16:09;;;;;;;35.38;25.60;;;2.60;91.90;;;;;;5038769;28;20040;-80
2024/01/07 08:18:34;;;;;;;32.25;23.65;;;2.50;91.90;;;;;;5037269;28;20056;-79
2024/01/07 08:21:00;;;;;;;34.10;24.00;;;2.50;92.00;;;;;;5052809;28;20399;-78
2024/01/07 08:23:26;;;;;;;35.80;23.77;;;2.50;92.00;;;;;;5055978;28;20458;-80
2024/01/07 08:25:51;;;;;;;32.92;23.73;;;2.60;92.10;;;;;;5047874;28;20076;-78
2024/01/07 08:28:17;;;;;;;36.78;26.50;;;2.60;91.90;;;;;;5050743;28;20583;-81
2024/01/07 08:30:44;;;;;;;34.75;24.73;;;2.60;92.20;;;;;;5049703;28;20059;-78
2024/01/07 08:33:10;;;;;;;34.92;25.00;;;2.60;92.00;;;;;;5054616;28;20036;-77
2024/01/07 08:35:36;;;;;;;36.50;25.83;;;2.60;92.20;;;;;;5049583;28;20083;-79
2024/01/07 08:38:01;;;;;;;36.30;26.10;;;2.60;92.20;;;;;;5047699;28;20052;-81
2024/01/07 08:40:27;;;;;;;32.20;23.90;;;2.70;92.10;;;;;;5030771;28;20354;-80
2024/01/07 08:42:53;;;;;;;34.72;24.25;;;2.60;92.20;;;;;;5033381;28;20828;-80
2024/01/07 08:45:19;;;;;;;40.72;27.30;;;2.60;92.30;;;;;;5055732;28;20025;-78
2024/01/07 08:47:44;;;;;;;39.70;27.63;;;2.60;92.30;;;;;;5037409;28;20028;-81
2024/01/07 08:50:10;;;;;;;41.40;28.30;;;2.50;92.20;;;;;;5051925;28;20028;-76
2024/01/07 08:52:36;;;;;;;42.33;29.00;;;2.50;92.40;;;;;;5047552;28;20041;-78
2024/01/07 08:55:05;;;;;;;41.78;28.42;;;2.50;92.80;;;;;;5052534;28;20385;-77
2024/01/07 08:57:31;;;;;;;45.15;29.02;;;2.50;92.60;;;;;;5047762;28;20543;-79
2024/01/07 08:59:56;;;;;;;46.47;31.85;;;2.50;92.70;;;;;;5027461;28;20016;-80
2024/01/07 09:02:22;;;;;;;47.47;30.25;;;2.60;92.80;;;;;;5050298;28;20424;-81
2024/01/07 09:04:48;;;;;;;44.92;30.10;;;2.60;92.60;;;;;;5054907;28;20027;-77
2024/01/07 09:07:16;;;;;;;46.00;31.25;;;2.60;92.50;;;;;;5035082;28;20020;-82
2024/01/07 09:09:42;;;;;;;48.42;30.17;;;2.70;92.70;;;;;;5051147;28;20024;-79
2024/01/07 09:12:07;;;;;;;45.55;29.73;;;2.70;92.50;;;;;;5041128;28;20071;-80
2024/01/07 09:14:33;;;;;;;45.67;28.88;;;2.60;92.40;;;;;;5037860;28;20021;-81
2024/01/07 09:16:59;;;;;;;45.88;30.27;;;2.60;92.50;;;;;;5057273;28;20048;-80
2024/01/07 09:19:24;;;;;;;46.40;28.92;;;2.60;92.60;;;;;;5033076;28;20076;-79
2024/01/07 09:21:50;;;;;;;47.88;29.52;;;2.60;92.70;;;;;;5058528;28;20032;-79
2024/01/07 09:24:16;;;;;;;48.20;29.77;;;2.60;92.60;;;;;;5055788;28;20048;-78
2024/01/07 09:26:41;;;;;;;46.20;30.02;;;2.50;92.60;;;;;;5052467;28;20160;-82
2024/01/07 09:29:07;;;;;;;50.80;30.50;;;2.50;93.00;;;;;;5057572;28;20029;-80
2024/01/07 09:31:33;;;;;;;48.83;30.80;;;2.60;93.10;;;;;;5059227;28;20067;-79
2024/01/07 09:33:58;;;;;;;47.92;30.13;;;2.50;92.80;;;;;;5059306;28;20032;-80
2024/01/07 09:36:24;;;;;;;47.20;30.50;;;2.50;93.20;;;;;;5041995;28;20111;-79
2024/01/07 09:38:49;;;;;;;45.83;30.73;;;2.60;93.10;;;;;;5039831;28;20422;-80
2024/01/07 09:41:15;;;;;;;45.05;29.95;;;2.60;93.00;;;;;;5058235;28;20111;-80
2024/01/07 09:43:41;;;;;;;45.90;30.17;;;2.50;92.90;;;;;;5062652;28;20032;-82
2024/01/07 09:46:07;;;;;;;51.33;33.03;;;2.50;93.00;;;;;;5052520;28;20034;-82
2024/01/07 09:48:33;;;;;;;44.63;29.77;;;2.60;93.20;;;;;;5073333;28;20094;-80
2024/01/07 09:51:01;;;;;;;46.78;29.75;;;2.60;93.10;;;;;;5083565;28;20051;-80
2024/01/07 09:53:31;;;;;;;46.25;30.65;;;2.60;93.00;;;;;;5044433;28;20488;-84
2024/01/07 09:56:13;;;;;;;47.30;31.15;;;2.50;93.00;;;;;;5064984;28;20057;-81
2024/01/07 09:58:42;;;;;;;44.58;29.20;;;2.50;93.20;;;;;;5041062;28;20028;-83
2024/01/07 10:01:08;;;;;;;48.97;31.10;;;2.50;93.20;;;;;;5058147;28;20063;-79
2024/01/07 10:03:33;;;;;;;49.42;30.38;;;2.50;93.30;;;;;;5044747;28;20101;-87
2024/01/07 10:05:59;;;;;;;47.58;31.25;;;2.40;93.30;;;;;;5034739;28;20020;-76
2024/01/07 10:08:25;;;;;;;50.78;32.63;;;2.40;93.30;;;;;;5036059;28;20024;-77
2024/01/07 10:10:50;;;;;;;51.65;33.92;;;2.50;93.40;;;;;;5053174;28;20428;-76
2024/01/07 10:13:16;;;;;;;50.70;32.08;;;2.50;93.20;;;;;;5056494;28;20024;-77
2024/01/07 10:15:42;;;;;;;52.75;33.53;;;2.50;93.20;;;;;;5054485;28;20051;-77
2024/01/07 10:18:08;;;;;;;50.78;31.25;;;2.50;93.30;;;;;;5057978;28;20122;-76
2024/01/07 10:20:34;;;;;;;51.65;32.53;;;2.40;93.10;;;;;;5057418;28;20034;-74
2024/01/07 10:23:01;;;;;;;49.42;31.15;;;2.30;93.20;;;;;;5051162;28;20035;-76
2024/01/07 10:25:27;;;;;;;45.38;31.23;;;2.40;93.30;;;;;;5050555;28;20031;-76
2024/01/07 10:27:53;;;;;;;47.75;30.58;;;2.40;93.20;;;;;;5037224;28;20124;-77
2024/01/07 10:30:19;;;;;;;50.35;31.50;;;2.40;92.90;;;;;;5060548;28;20100;-75
2024/01/07 10:32:46;;;;;;;48.58;30.45;;;2.40;92.90;;;;;;5074541;28;20111;-75
2024/01/07 10:35:19;;;;;;;46.17;30.30;;;2.40;92.70;;;;;;5064658;28;20472;-77
2024/01/07 10:37:45;;;;;;;50.08;32.17;;;2.40;92.60;;;;;;5038556;28;20492;-78
2024/01/07 10:40:11;;;;;;;50.30;33.42;;;2.40;92.80;;;;;;5033691;28;20056;-77
2024/01/07 10:42:39;;;;;;;50.95;32.50;;;2.40;92.70;;;;;;5031734;28;20440;-76
2024/01/07 10:45:05;;;;;;;52.38;33.55;;;2.40;92.70;;;;;;5054669;28;20017;-75
2024/01/07 10:47:31;;;;;;;52.10;32.75;;;2.40;92.50;;;;;;5036544;28;20079;-76
2024/01/07 10:49:58;;;;;;;47.92;32.00;;;2.30;92.50;;;;;;5055763;28;20472;-76
2024/01/07 10:52:27;;;;;;;47.35;30.50;;;2.30;92.20;;;;;;5037136;28;20056;-76
2024/01/07 10:54:56;;;;;;;44.90;30.30;;;2.40;92.00;;;;;;5040527;28;20021;-76
2024/01/07 10:57:21;;;;;;;46.13;31.67;;;2.30;91.60;;;;;;5048512;28;20115;-75
2024/01/07 10:59:49;;;;;;;44.63;29.23;;;2.40;91.80;;;;;;5037077;28;20119;-77
2024/01/07 11:02:15;;;;;;;42.38;31.00;;;2.40;91.50;;;;;;5041495;28;20017;-76
2024/01/07 11:04:54;;;;;;;42.05;31.05;;;2.50;91.70;;;;;;5056809;28;20036;-76
2024/01/07 11:07:41;;;;;;;43.05;30.05;;;2.50;91.40;;;;;;5055289;28;20037;-76
2024/01/07 11:10:19;;;;;;;45.25;29.48;;;2.40;91.40;;;;;;5049361;28;20043;-77
2024/01/07 11:12:58;;;;;;;39.45;29.73;;;2.40;91.10;;;;;;5033678;28;20735;-75
2024/01/07 11:15:54;;;;;;;40.63;28.27;;;2.40;91.00;;;;;;5030533;28;20067;-76
2024/01/07 11:18:21;;;;;;;41.92;29.23;;;2.30;90.90;;;;;;5031471;28;20507;-75
2024/01/07 11:20:47;;;;;;;36.20;26.13;;;2.40;91.10;;;;;;5037620;28;20020;-77
2024/01/07 11:23:30;;;;;;;36.60;26.73;;;2.40;90.50;;;;;;5054207;28;20476;-76
2024/01/07 11:26:05;;;;;;;35.00;24.33;;;2.30;89.70;;;;;;5036982;28;20072;-76
2024/01/07 11:28:57;;;;;;;32.67;24.35;;;2.40;89.60;;;;;;5059355;28;20043;-77
2024/01/07 11:31:43;;;;;;;37.72;26.08;;;2.30;89.70;;;;;;5046560;28;20025;-74
2024/01/07 11:34:09;;;;;;;36.33;27.35;;;2.40;89.70;;;;;;5054948;28;20325;-75
2024/01/07 11:36:38;;;;;;;35.20;27.15;;;2.50;89.60;;;;;;5053077;28;20373;-76
2024/01/07 11:39:08;;;;;;;39.53;27.88;;;2.40;89.40;;;;;;5053607;28;20604;-76
2024/01/07 11:41:34;;;;;;;39.15;28.35;;;2.50;89.80;;;;;;5036238;28;20103;-77
2024/01/07 11:44:00;;;;;;;42.63;29.05;;;2.40;89.40;;;;;;5052553;28;20043;-75
2024/01/07 11:46:27;;;;;;;41.97;30.30;;;2.40;89.60;;;;;;5056937;28;20025;-76
2024/01/07 11:48:58;;;;;;;43.92;30.80;;;2.40;89.80;;;;;;5064257;28;20104;-77
2024/01/07 11:51:28;;;;;;;39.58;28.88;;;2.40;89.80;;;;;;5061802;28;20028;-78
2024/01/07 11:53:54;;;;;;;41.95;28.65;;;2.40;89.80;;;;;;5075758;28;20564;-76
2024/01/07 11:56:20;;;;;;;41.63;29.75;;;2.40;89.80;;;;;;5077379;28;20076;-76
2024/01/07 11:58:46;;;;;;;40.70;27.13;;;2.40;89.70;;;;;;5053239;28;20071;-75
2024/01/07 12:01:14;;;;;;;41.08;28.27;;;2.40;89.80;;;;;;5070397;28;20020;-76
2024/01/07 12:03:41;;;;;;;40.17;28.50;;;2.40;90.00;;;;;;5043120;28;20124;-77
2024/01/07 12:06:07;;;;;;;42.53;29.55;;;2.40;90.00;;;;;;5051104;28;20028;-75
2024/01/07 12:08:32;;;;;;;38.60;28.73;;;2.40;90.10;;;;;;5049598;28;20094;-77
2024/01/07 12:10:59;;;;;;;39.47;27.13;;;2.40;90.10;;;;;;5078940;28;20020;-76
2024/01/07 12:13:25;;;;;;;40.00;28.45;;;2.40;90.20;;;;;;5056834;28;20048;-77
2024/01/07 12:15:51;;;;;;;48.42;33.25;;;2.40;90.60;;;;;;5051828;28;20051;-75
2024/01/07 12:18:17;;;;;;;48.00;33.33;;;2.50;90.90;;;;;;5048481;28;20029;-76
2024/01/07 12:20:55;;;;;;;43.10;32.90;;;2.50;90.70;;;;;;5053714;28;20453;-74
2024/01/07 12:23:20;;;;;;;41.63;29.77;;;2.50;90.90;;;;;;5036462;28;20197;-76
2024/01/07 12:25:46;;;;;;;45.80;31.38;;;2.40;90.80;;;;;;5039281;28;20442;-74
2024/01/07 12:28:11;;;;;;;51.28;34.38;;;2.40;90.90;;;;;;5065872;28;20425;-76
2024/01/07 12:30:38;;;;;;;44.17;32.47;;;2.50;91.10;;;;;;5067606;28;20026;-76
2024/01/07 12:33:05;;;;;;;47.80;33.25;;;2.40;90.90;;;;;;5064668;28;20183;-75
2024/01/07 12:35:31;;;;;;;46.70;34.50;;;2.40;91.00;;;;;;5053521;28;20024;-78